sensor_id;sensor_type;location;lat;lon;timestamp;P1;durP1;ratioP1;P2;durP2;ratioP2
11396;SDS011;5754;43.726;7.416;2022-12-29T00:02:31;6.90;;;2.87;;
11396;SDS011;5754;43.726;7.416;2022-12-29T00:05:07;3.93;;;2.60;;
11396;SDS011;5754;43.726;7.416;2022-12-29T00:07:41;3.93;;;2.67;;
11396;SDS011;5754;43.726;7.416;2022-12-29T00:10:16;3.03;;;2.33;;
11396;SDS011;5754;43.726;7.416;2022-12-29T00:12:52;3.60;;;2.80;;
11396;SDS011;5754;43.726;7.416;2022-12-29T00:15:45;6.40;;;2.90;;
11396;SDS011;5754;43.726;7.416;2022-12-29T00:18:21;4.63;;;2.90;;
11396;SDS011;5754;43.726;7.416;2022-12-29T00:20:56;4.27;;;2.63;;
11396;SDS011;5754;43.726;7.416;2022-12-29T00:23:49;4.73;;;2.57;;
11396;SDS011;5754;43.726;7.416;2022-12-29T00:26:43;3.20;;;2.40;;
11396;SDS011;5754;43.726;7.416;2022-12-29T00:29:38;3.73;;;2.53;;
11396;SDS011;5754;43.726;7.416;2022-12-29T00:32:32;3.23;;;2.50;;
11396;SDS011;5754;43.726;7.416;2022-12-29T00:35:28;3.53;;;2.17;;
11396;SDS011;5754;43.726;7.416;2022-12-29T00:38:03;3.17;;;2.50;;
11396;SDS011;5754;43.726;7.416;2022-12-29T00:40:58;3.47;;;2.40;;
11396;SDS011;5754;43.726;7.416;2022-12-29T00:43:52;5.00;;;2.80;;
11396;SDS011;5754;43.726;7.416;2022-12-29T00:46:40;3.43;;;2.63;;
11396;SDS011;5754;43.726;7.416;2022-12-29T00:49:16;3.40;;;2.40;;
11396;SDS011;5754;43.726;7.416;2022-12-29T00:52:08;3.57;;;2.60;;
11396;SDS011;5754;43.726;7.416;2022-12-29T00:54:42;6.23;;;2.80;;
11396;SDS011;5754;43.726;7.416;2022-12-29T00:57:18;4.80;;;2.90;;
11396;SDS011;5754;43.726;7.416;2022-12-29T00:59:52;4.37;;;3.00;;
11396;SDS011;5754;43.726;7.416;2022-12-29T01:02:28;3.60;;;2.57;;
11396;SDS011;5754;43.726;7.416;2022-12-29T01:05:03;4.10;;;3.10;;
11396;SDS011;5754;43.726;7.416;2022-12-29T01:07:38;4.87;;;2.47;;
11396;SDS011;5754;43.726;7.416;2022-12-29T01:10:14;4.13;;;2.70;;
11396;SDS011;5754;43.726;7.416;2022-12-29T01:12:48;3.87;;;2.30;;
11396;SDS011;5754;43.726;7.416;2022-12-29T01:15:26;4.57;;;2.53;;
11396;SDS011;5754;43.726;7.416;2022-12-29T01:18:02;3.60;;;2.40;;
11396;SDS011;5754;43.726;7.416;2022-12-29T01:20:37;3.03;;;2.60;;
11396;SDS011;5754;43.726;7.416;2022-12-29T01:23:11;4.13;;;2.60;;
11396;SDS011;5754;43.726;7.416;2022-12-29T01:25:46;5.23;;;2.77;;
11396;SDS011;5754;43.726;7.416;2022-12-29T01:28:22;5.10;;;3.10;;
11396;SDS011;5754;43.726;7.416;2022-12-29T01:31:00;3.70;;;2.37;;
11396;SDS011;5754;43.726;7.416;2022-12-29T01:33:36;5.77;;;2.63;;
11396;SDS011;5754;43.726;7.416;2022-12-29T01:36:14;3.50;;;2.57;;
11396;SDS011;5754;43.726;7.416;2022-12-29T01:38:50;3.57;;;2.40;;
11396;SDS011;5754;43.726;7.416;2022-12-29T01:41:30;4.47;;;2.60;;
11396;SDS011;5754;43.726;7.416;2022-12-29T01:46:59;3.97;;;2.50;;
11396;SDS011;5754;43.726;7.416;2022-12-29T01:49:34;4.20;;;2.40;;
11396;SDS011;5754;43.726;7.416;2022-12-29T01:52:09;4.00;;;2.63;;
11396;SDS011;5754;43.726;7.416;2022-12-29T01:54:45;4.13;;;2.33;;
11396;SDS011;5754;43.726;7.416;2022-12-29T01:57:25;5.00;;;2.70;;
11396;SDS011;5754;43.726;7.416;2022-12-29T02:00:11;5.03;;;2.60;;
11396;SDS011;5754;43.726;7.416;2022-12-29T02:02:48;4.07;;;2.50;;
11396;SDS011;5754;43.726;7.416;2022-12-29T02:05:38;3.30;;;2.40;;
11396;SDS011;5754;43.726;7.416;2022-12-29T02:08:14;3.50;;;2.50;;
11396;SDS011;5754;43.726;7.416;2022-12-29T02:10:50;6.93;;;3.20;;
11396;SDS011;5754;43.726;7.416;2022-12-29T02:13:29;4.30;;;2.40;;
11396;SDS011;5754;43.726;7.416;2022-12-29T02:16:29;6.97;;;2.63;;
11396;SDS011;5754;43.726;7.416;2022-12-29T02:28:52;5.37;;;2.70;;
11396;SDS011;5754;43.726;7.416;2022-12-29T02:31:36;3.73;;;2.27;;
11396;SDS011;5754;43.726;7.416;2022-12-29T02:34:41;4.23;;;2.40;;
11396;SDS011;5754;43.726;7.416;2022-12-29T02:37:41;3.23;;;2.30;;
11396;SDS011;5754;43.726;7.416;2022-12-29T02:40:30;4.87;;;2.47;;
11396;SDS011;5754;43.726;7.416;2022-12-29T02:43:32;3.93;;;2.73;;
11396;SDS011;5754;43.726;7.416;2022-12-29T02:46:18;5.53;;;2.60;;
11396;SDS011;5754;43.726;7.416;2022-12-29T02:48:55;5.03;;;2.60;;
11396;SDS011;5754;43.726;7.416;2022-12-29T02:51:36;4.20;;;2.70;;
11396;SDS011;5754;43.726;7.416;2022-12-29T02:54:12;3.80;;;2.23;;
11396;SDS011;5754;43.726;7.416;2022-12-29T03:01:53;4.53;;;2.77;;
11396;SDS011;5754;43.726;7.416;2022-12-29T03:06:26;5.30;;;3.07;;
11396;SDS011;5754;43.726;7.416;2022-12-29T03:13:21;5.30;;;2.53;;
11396;SDS011;5754;43.726;7.416;2022-12-29T03:16:21;3.67;;;2.20;;
11396;SDS011;5754;43.726;7.416;2022-12-29T03:19:02;4.73;;;2.97;;
11396;SDS011;5754;43.726;7.416;2022-12-29T03:21:39;5.13;;;2.47;;
11396;SDS011;5754;43.726;7.416;2022-12-29T03:24:38;6.27;;;2.73;;
11396;SDS011;5754;43.726;7.416;2022-12-29T03:27:16;3.73;;;2.57;;
11396;SDS011;5754;43.726;7.416;2022-12-29T03:29:54;6.80;;;2.70;;
11396;SDS011;5754;43.726;7.416;2022-12-29T03:32:37;3.23;;;2.37;;
11396;SDS011;5754;43.726;7.416;2022-12-29T03:35:15;4.40;;;2.43;;
11396;SDS011;5754;43.726;7.416;2022-12-29T03:38:11;4.37;;;2.50;;
11396;SDS011;5754;43.726;7.416;2022-12-29T03:40:53;5.07;;;2.60;;
11396;SDS011;5754;43.726;7.416;2022-12-29T03:43:29;4.33;;;2.60;;
11396;SDS011;5754;43.726;7.416;2022-12-29T03:46:05;4.63;;;2.63;;
11396;SDS011;5754;43.726;7.416;2022-12-29T03:48:40;4.40;;;2.30;;
11396;SDS011;5754;43.726;7.416;2022-12-29T03:51:15;7.00;;;2.83;;
11396;SDS011;5754;43.726;7.416;2022-12-29T03:53:49;5.53;;;2.80;;
11396;SDS011;5754;43.726;7.416;2022-12-29T03:56:24;4.50;;;2.50;;
11396;SDS011;5754;43.726;7.416;2022-12-29T03:58:58;8.37;;;2.60;;
11396;SDS011;5754;43.726;7.416;2022-12-29T04:01:38;5.83;;;2.50;;
11396;SDS011;5754;43.726;7.416;2022-12-29T04:04:15;5.10;;;2.73;;
11396;SDS011;5754;43.726;7.416;2022-12-29T04:06:52;5.63;;;2.73;;
11396;SDS011;5754;43.726;7.416;2022-12-29T04:09:27;5.63;;;2.80;;
11396;SDS011;5754;43.726;7.416;2022-12-29T04:12:04;5.37;;;2.70;;
11396;SDS011;5754;43.726;7.416;2022-12-29T04:14:41;4.47;;;3.23;;
11396;SDS011;5754;43.726;7.416;2022-12-29T04:17:16;5.40;;;3.00;;
11396;SDS011;5754;43.726;7.416;2022-12-29T04:19:51;6.03;;;2.80;;
11396;SDS011;5754;43.726;7.416;2022-12-29T04:23:34;5.17;;;2.70;;
11396;SDS011;5754;43.726;7.416;2022-12-29T04:26:10;5.10;;;2.60;;
11396;SDS011;5754;43.726;7.416;2022-12-29T04:28:54;7.07;;;2.90;;
11396;SDS011;5754;43.726;7.416;2022-12-29T04:33:21;4.77;;;2.53;;
11396;SDS011;5754;43.726;7.416;2022-12-29T04:36:01;4.83;;;2.40;;
11396;SDS011;5754;43.726;7.416;2022-12-29T04:38:35;6.40;;;2.33;;
11396;SDS011;5754;43.726;7.416;2022-12-29T04:41:13;6.70;;;2.63;;
11396;SDS011;5754;43.726;7.416;2022-12-29T04:43:47;5.73;;;2.50;;
11396;SDS011;5754;43.726;7.416;2022-12-29T04:47:45;6.40;;;2.70;;
11396;SDS011;5754;43.726;7.416;2022-12-29T04:53:51;5.13;;;2.80;;
11396;SDS011;5754;43.726;7.416;2022-12-29T04:56:26;7.33;;;2.63;;
11396;SDS011;5754;43.726;7.416;2022-12-29T04:59:03;4.30;;;2.60;;
11396;SDS011;5754;43.726;7.416;2022-12-29T05:01:38;6.70;;;3.13;;
11396;SDS011;5754;43.726;7.416;2022-12-29T05:04:13;7.83;;;2.70;;
11396;SDS011;5754;43.726;7.416;2022-12-29T05:06:48;8.17;;;2.50;;
11396;SDS011;5754;43.726;7.416;2022-12-29T05:09:24;7.57;;;2.90;;
11396;SDS011;5754;43.726;7.416;2022-12-29T05:11:58;6.40;;;2.67;;
11396;SDS011;5754;43.726;7.416;2022-12-29T05:14:33;5.40;;;3.10;;
11396;SDS011;5754;43.726;7.416;2022-12-29T05:17:12;4.53;;;2.93;;
11396;SDS011;5754;43.726;7.416;2022-12-29T05:19:47;7.10;;;2.90;;
11396;SDS011;5754;43.726;7.416;2022-12-29T05:22:22;7.80;;;2.90;;
11396;SDS011;5754;43.726;7.416;2022-12-29T05:24:56;6.10;;;2.87;;
11396;SDS011;5754;43.726;7.416;2022-12-29T05:27:31;7.67;;;2.80;;
11396;SDS011;5754;43.726;7.416;2022-12-29T05:30:31;5.40;;;2.67;;
11396;SDS011;5754;43.726;7.416;2022-12-29T05:33:06;4.57;;;2.70;;
11396;SDS011;5754;43.726;7.416;2022-12-29T05:35:41;9.50;;;2.93;;
11396;SDS011;5754;43.726;7.416;2022-12-29T05:38:16;7.13;;;2.90;;
11396;SDS011;5754;43.726;7.416;2022-12-29T05:40:50;9.93;;;2.97;;
11396;SDS011;5754;43.726;7.416;2022-12-29T05:43:43;5.53;;;2.80;;
11396;SDS011;5754;43.726;7.416;2022-12-29T05:46:36;4.53;;;2.30;;
11396;SDS011;5754;43.726;7.416;2022-12-29T05:49:30;5.60;;;2.40;;
11396;SDS011;5754;43.726;7.416;2022-12-29T05:52:12;7.03;;;2.43;;
11396;SDS011;5754;43.726;7.416;2022-12-29T05:54:46;5.57;;;3.10;;
11396;SDS011;5754;43.726;7.416;2022-12-29T05:57:24;4.00;;;2.60;;
11396;SDS011;5754;43.726;7.416;2022-12-29T06:00:12;7.63;;;2.50;;
11396;SDS011;5754;43.726;7.416;2022-12-29T06:02:48;5.07;;;2.67;;
11396;SDS011;5754;43.726;7.416;2022-12-29T06:05:28;5.07;;;2.70;;
11396;SDS011;5754;43.726;7.416;2022-12-29T06:08:04;4.50;;;2.87;;
11396;SDS011;5754;43.726;7.416;2022-12-29T06:10:38;4.20;;;2.70;;
11396;SDS011;5754;43.726;7.416;2022-12-29T06:13:17;8.90;;;3.23;;
11396;SDS011;5754;43.726;7.416;2022-12-29T06:15:55;6.57;;;2.90;;
11396;SDS011;5754;43.726;7.416;2022-12-29T06:18:32;5.27;;;2.93;;
11396;SDS011;5754;43.726;7.416;2022-12-29T06:21:06;7.83;;;2.80;;
11396;SDS011;5754;43.726;7.416;2022-12-29T06:23:43;6.03;;;2.80;;
11396;SDS011;5754;43.726;7.416;2022-12-29T06:26:17;5.60;;;3.10;;
11396;SDS011;5754;43.726;7.416;2022-12-29T06:28:55;5.27;;;2.90;;
11396;SDS011;5754;43.726;7.416;2022-12-29T06:31:29;5.50;;;3.27;;
11396;SDS011;5754;43.726;7.416;2022-12-29T06:34:03;5.90;;;3.20;;
11396;SDS011;5754;43.726;7.416;2022-12-29T06:36:41;3.60;;;2.57;;
11396;SDS011;5754;43.726;7.416;2022-12-29T06:39:16;5.63;;;3.03;;
11396;SDS011;5754;43.726;7.416;2022-12-29T06:41:56;5.53;;;2.80;;
11396;SDS011;5754;43.726;7.416;2022-12-29T06:44:49;7.87;;;3.13;;
11396;SDS011;5754;43.726;7.416;2022-12-29T06:47:24;3.50;;;2.60;;
11396;SDS011;5754;43.726;7.416;2022-12-29T06:49:59;10.10;;;3.23;;
11396;SDS011;5754;43.726;7.416;2022-12-29T06:52:34;5.40;;;2.60;;
11396;SDS011;5754;43.726;7.416;2022-12-29T06:55:09;3.90;;;2.40;;
11396;SDS011;5754;43.726;7.416;2022-12-29T06:57:44;9.87;;;3.13;;
11396;SDS011;5754;43.726;7.416;2022-12-29T07:00:19;6.83;;;3.00;;
11396;SDS011;5754;43.726;7.416;2022-12-29T07:02:56;9.60;;;3.00;;
11396;SDS011;5754;43.726;7.416;2022-12-29T07:05:31;4.67;;;2.90;;
11396;SDS011;5754;43.726;7.416;2022-12-29T07:08:05;9.10;;;3.23;;
11396;SDS011;5754;43.726;7.416;2022-12-29T07:10:40;5.27;;;3.40;;
11396;SDS011;5754;43.726;7.416;2022-12-29T07:13:15;5.53;;;3.10;;
11396;SDS011;5754;43.726;7.416;2022-12-29T07:15:52;7.43;;;2.83;;
11396;SDS011;5754;43.726;7.416;2022-12-29T07:18:26;8.87;;;4.63;;
11396;SDS011;5754;43.726;7.416;2022-12-29T07:21:01;6.47;;;3.70;;
11396;SDS011;5754;43.726;7.416;2022-12-29T07:23:36;6.03;;;3.30;;
11396;SDS011;5754;43.726;7.416;2022-12-29T07:26:11;6.10;;;3.70;;
11396;SDS011;5754;43.726;7.416;2022-12-29T07:28:46;14.13;;;9.43;;
11396;SDS011;5754;43.726;7.416;2022-12-29T07:31:21;9.40;;;5.90;;
11396;SDS011;5754;43.726;7.416;2022-12-29T07:33:57;7.63;;;4.90;;
11396;SDS011;5754;43.726;7.416;2022-12-29T07:36:31;5.40;;;4.83;;
11396;SDS011;5754;43.726;7.416;2022-12-29T07:39:07;5.73;;;4.10;;
11396;SDS011;5754;43.726;7.416;2022-12-29T07:41:42;8.37;;;4.10;;
11396;SDS011;5754;43.726;7.416;2022-12-29T07:44:23;6.23;;;3.30;;
11396;SDS011;5754;43.726;7.416;2022-12-29T07:49:35;5.80;;;3.23;;
11396;SDS011;5754;43.726;7.416;2022-12-29T07:52:11;7.47;;;3.33;;
11396;SDS011;5754;43.726;7.416;2022-12-29T07:54:46;7.20;;;3.60;;
11396;SDS011;5754;43.726;7.416;2022-12-29T07:57:21;9.80;;;3.93;;
11396;SDS011;5754;43.726;7.416;2022-12-29T07:59:58;7.13;;;5.03;;
11396;SDS011;5754;43.726;7.416;2022-12-29T08:02:33;8.97;;;5.27;;
11396;SDS011;5754;43.726;7.416;2022-12-29T08:05:08;8.63;;;4.07;;
11396;SDS011;5754;43.726;7.416;2022-12-29T08:07:43;8.17;;;3.70;;
11396;SDS011;5754;43.726;7.416;2022-12-29T08:10:19;8.07;;;3.80;;
11396;SDS011;5754;43.726;7.416;2022-12-29T08:12:53;7.33;;;4.03;;
11396;SDS011;5754;43.726;7.416;2022-12-29T08:15:27;8.07;;;3.67;;
11396;SDS011;5754;43.726;7.416;2022-12-29T08:18:05;7.90;;;3.67;;
11396;SDS011;5754;43.726;7.416;2022-12-29T08:20:39;8.40;;;3.80;;
11396;SDS011;5754;43.726;7.416;2022-12-29T08:23:14;8.23;;;4.10;;
11396;SDS011;5754;43.726;7.416;2022-12-29T08:25:56;9.67;;;4.37;;
11396;SDS011;5754;43.726;7.416;2022-12-29T08:28:31;6.40;;;3.73;;
11396;SDS011;5754;43.726;7.416;2022-12-29T08:31:06;5.87;;;3.67;;
11396;SDS011;5754;43.726;7.416;2022-12-29T08:33:40;6.37;;;3.70;;
11396;SDS011;5754;43.726;7.416;2022-12-29T08:36:14;4.80;;;3.30;;
11396;SDS011;5754;43.726;7.416;2022-12-29T08:38:49;5.93;;;3.40;;
11396;SDS011;5754;43.726;7.416;2022-12-29T08:41:23;10.17;;;3.10;;
11396;SDS011;5754;43.726;7.416;2022-12-29T08:43:57;7.73;;;3.53;;
11396;SDS011;5754;43.726;7.416;2022-12-29T08:46:32;8.27;;;3.70;;
11396;SDS011;5754;43.726;7.416;2022-12-29T08:49:06;9.33;;;4.00;;
11396;SDS011;5754;43.726;7.416;2022-12-29T08:51:42;7.40;;;3.47;;
11396;SDS011;5754;43.726;7.416;2022-12-29T08:54:16;7.47;;;3.83;;
11396;SDS011;5754;43.726;7.416;2022-12-29T08:56:51;6.10;;;3.03;;
11396;SDS011;5754;43.726;7.416;2022-12-29T08:59:31;6.73;;;3.33;;
11396;SDS011;5754;43.726;7.416;2022-12-29T09:02:05;7.67;;;3.10;;
11396;SDS011;5754;43.726;7.416;2022-12-29T09:04:40;5.47;;;3.23;;
11396;SDS011;5754;43.726;7.416;2022-12-29T09:07:15;6.77;;;3.97;;
11396;SDS011;5754;43.726;7.416;2022-12-29T09:09:50;7.60;;;3.33;;
11396;SDS011;5754;43.726;7.416;2022-12-29T09:12:26;8.60;;;3.20;;
11396;SDS011;5754;43.726;7.416;2022-12-29T09:15:04;7.40;;;3.20;;
11396;SDS011;5754;43.726;7.416;2022-12-29T09:17:39;8.57;;;3.07;;
11396;SDS011;5754;43.726;7.416;2022-12-29T09:20:18;7.13;;;3.30;;
11396;SDS011;5754;43.726;7.416;2022-12-29T09:22:53;6.90;;;3.43;;
11396;SDS011;5754;43.726;7.416;2022-12-29T09:25:28;5.90;;;2.90;;
11396;SDS011;5754;43.726;7.416;2022-12-29T09:28:03;6.60;;;2.87;;
11396;SDS011;5754;43.726;7.416;2022-12-29T09:30:41;5.40;;;3.30;;
11396;SDS011;5754;43.726;7.416;2022-12-29T09:33:15;7.20;;;2.80;;
11396;SDS011;5754;43.726;7.416;2022-12-29T09:35:50;7.43;;;2.90;;
11396;SDS011;5754;43.726;7.416;2022-12-29T09:38:26;7.03;;;2.70;;
11396;SDS011;5754;43.726;7.416;2022-12-29T09:41:05;5.03;;;2.73;;
11396;SDS011;5754;43.726;7.416;2022-12-29T09:43:48;7.13;;;3.00;;
11396;SDS011;5754;43.726;7.416;2022-12-29T09:46:29;6.00;;;2.83;;
11396;SDS011;5754;43.726;7.416;2022-12-29T09:49:13;4.77;;;2.77;;
11396;SDS011;5754;43.726;7.416;2022-12-29T09:51:56;6.53;;;3.07;;
11396;SDS011;5754;43.726;7.416;2022-12-29T09:54:37;4.03;;;2.57;;
11396;SDS011;5754;43.726;7.416;2022-12-29T09:57:15;8.13;;;2.87;;
11396;SDS011;5754;43.726;7.416;2022-12-29T09:59:50;5.90;;;2.80;;
11396;SDS011;5754;43.726;7.416;2022-12-29T10:02:29;6.40;;;2.90;;
11396;SDS011;5754;43.726;7.416;2022-12-29T10:05:12;7.77;;;3.00;;
11396;SDS011;5754;43.726;7.416;2022-12-29T10:17:53;5.07;;;2.80;;
11396;SDS011;5754;43.726;7.416;2022-12-29T10:26:41;4.43;;;2.83;;
11396;SDS011;5754;43.726;7.416;2022-12-29T10:29:21;3.37;;;2.70;;
11396;SDS011;5754;43.726;7.416;2022-12-29T10:36:14;4.23;;;2.80;;
11396;SDS011;5754;43.726;7.416;2022-12-29T10:39:16;9.43;;;3.27;;
11396;SDS011;5754;43.726;7.416;2022-12-29T10:42:09;8.13;;;2.83;;
11396;SDS011;5754;43.726;7.416;2022-12-29T10:44:45;5.60;;;2.87;;
11396;SDS011;5754;43.726;7.416;2022-12-29T10:47:21;6.27;;;3.07;;
11396;SDS011;5754;43.726;7.416;2022-12-29T10:49:58;5.63;;;2.90;;
11396;SDS011;5754;43.726;7.416;2022-12-29T10:52:34;6.53;;;3.43;;
11396;SDS011;5754;43.726;7.416;2022-12-29T10:55:13;6.33;;;3.07;;
11396;SDS011;5754;43.726;7.416;2022-12-29T10:57:48;5.07;;;2.97;;
11396;SDS011;5754;43.726;7.416;2022-12-29T11:00:23;3.80;;;2.80;;
11396;SDS011;5754;43.726;7.416;2022-12-29T11:03:46;5.47;;;2.80;;
11396;SDS011;5754;43.726;7.416;2022-12-29T11:06:26;6.03;;;2.97;;
11396;SDS011;5754;43.726;7.416;2022-12-29T11:09:02;6.63;;;2.90;;
11396;SDS011;5754;43.726;7.416;2022-12-29T11:11:42;4.47;;;2.97;;
11396;SDS011;5754;43.726;7.416;2022-12-29T11:14:30;6.57;;;2.77;;
11396;SDS011;5754;43.726;7.416;2022-12-29T11:17:05;5.53;;;3.27;;
11396;SDS011;5754;43.726;7.416;2022-12-29T11:19:39;4.57;;;2.77;;
11396;SDS011;5754;43.726;7.416;2022-12-29T11:22:23;6.00;;;3.00;;
11396;SDS011;5754;43.726;7.416;2022-12-29T11:25:05;8.57;;;3.13;;
11396;SDS011;5754;43.726;7.416;2022-12-29T11:27:40;6.67;;;2.90;;
11396;SDS011;5754;43.726;7.416;2022-12-29T11:30:29;5.67;;;2.93;;
11396;SDS011;5754;43.726;7.416;2022-12-29T11:33:05;9.73;;;3.60;;
11396;SDS011;5754;43.726;7.416;2022-12-29T11:35:40;12.13;;;3.00;;
11396;SDS011;5754;43.726;7.416;2022-12-29T11:38:26;10.90;;;3.90;;
11396;SDS011;5754;43.726;7.416;2022-12-29T11:41:05;8.87;;;3.77;;
11396;SDS011;5754;43.726;7.416;2022-12-29T11:43:41;9.23;;;3.40;;
11396;SDS011;5754;43.726;7.416;2022-12-29T11:46:22;7.43;;;3.30;;
11396;SDS011;5754;43.726;7.416;2022-12-29T11:48:58;6.93;;;3.20;;
11396;SDS011;5754;43.726;7.416;2022-12-29T11:51:37;5.83;;;2.93;;
11396;SDS011;5754;43.726;7.416;2022-12-29T11:54:16;8.57;;;3.70;;
11396;SDS011;5754;43.726;7.416;2022-12-29T11:56:53;9.80;;;5.77;;
11396;SDS011;5754;43.726;7.416;2022-12-29T11:59:35;8.70;;;5.97;;
11396;SDS011;5754;43.726;7.416;2022-12-29T12:02:20;8.47;;;4.90;;
11396;SDS011;5754;43.726;7.416;2022-12-29T12:04:59;9.17;;;3.60;;
11396;SDS011;5754;43.726;7.416;2022-12-29T12:07:42;6.60;;;3.60;;
11396;SDS011;5754;43.726;7.416;2022-12-29T12:10:23;5.73;;;2.50;;
11396;SDS011;5754;43.726;7.416;2022-12-29T12:13:04;5.67;;;2.70;;
11396;SDS011;5754;43.726;7.416;2022-12-29T12:15:40;5.77;;;2.80;;
11396;SDS011;5754;43.726;7.416;2022-12-29T12:18:30;7.40;;;3.07;;
11396;SDS011;5754;43.726;7.416;2022-12-29T12:21:08;6.33;;;2.93;;
11396;SDS011;5754;43.726;7.416;2022-12-29T12:24:00;8.47;;;3.27;;
11396;SDS011;5754;43.726;7.416;2022-12-29T12:26:45;4.93;;;2.77;;
11396;SDS011;5754;43.726;7.416;2022-12-29T12:33:36;5.87;;;2.40;;
11396;SDS011;5754;43.726;7.416;2022-12-29T12:40:40;6.77;;;3.07;;
11396;SDS011;5754;43.726;7.416;2022-12-29T12:58:43;8.40;;;3.20;;
11396;SDS011;5754;43.726;7.416;2022-12-29T13:01:24;10.07;;;3.80;;
11396;SDS011;5754;43.726;7.416;2022-12-29T13:04:08;7.83;;;3.70;;
11396;SDS011;5754;43.726;7.416;2022-12-29T13:07:13;9.27;;;3.80;;
11396;SDS011;5754;43.726;7.416;2022-12-29T13:19:57;16.97;;;4.57;;
11396;SDS011;5754;43.726;7.416;2022-12-29T13:22:39;14.47;;;4.00;;
11396;SDS011;5754;43.726;7.416;2022-12-29T13:30:30;8.53;;;3.10;;
11396;SDS011;5754;43.726;7.416;2022-12-29T13:33:32;6.70;;;3.10;;
11396;SDS011;5754;43.726;7.416;2022-12-29T13:36:18;5.53;;;2.60;;
11396;SDS011;5754;43.726;7.416;2022-12-29T13:41:39;5.50;;;3.00;;
11396;SDS011;5754;43.726;7.416;2022-12-29T13:44:16;9.20;;;3.27;;
11396;SDS011;5754;43.726;7.416;2022-12-29T13:46:52;9.17;;;3.40;;
11396;SDS011;5754;43.726;7.416;2022-12-29T13:49:28;5.97;;;2.90;;
11396;SDS011;5754;43.726;7.416;2022-12-29T13:52:11;6.30;;;3.10;;
11396;SDS011;5754;43.726;7.416;2022-12-29T13:57:48;9.10;;;3.57;;
11396;SDS011;5754;43.726;7.416;2022-12-29T14:00:26;7.20;;;2.97;;
11396;SDS011;5754;43.726;7.416;2022-12-29T14:03:49;10.23;;;3.07;;
11396;SDS011;5754;43.726;7.416;2022-12-29T14:06:30;9.03;;;2.90;;
11396;SDS011;5754;43.726;7.416;2022-12-29T14:09:05;10.07;;;3.23;;
11396;SDS011;5754;43.726;7.416;2022-12-29T14:11:40;9.50;;;3.33;;
11396;SDS011;5754;43.726;7.416;2022-12-29T14:14:24;12.37;;;3.27;;
11396;SDS011;5754;43.726;7.416;2022-12-29T14:17:09;9.03;;;3.60;;
11396;SDS011;5754;43.726;7.416;2022-12-29T14:19:47;7.17;;;3.30;;
11396;SDS011;5754;43.726;7.416;2022-12-29T14:22:26;7.60;;;3.33;;
11396;SDS011;5754;43.726;7.416;2022-12-29T14:25:07;6.63;;;2.80;;
11396;SDS011;5754;43.726;7.416;2022-12-29T14:28:27;7.87;;;3.10;;
11396;SDS011;5754;43.726;7.416;2022-12-29T14:31:02;9.17;;;3.63;;
11396;SDS011;5754;43.726;7.416;2022-12-29T14:33:37;12.50;;;3.57;;
11396;SDS011;5754;43.726;7.416;2022-12-29T14:36:19;11.47;;;4.53;;
11396;SDS011;5754;43.726;7.416;2022-12-29T14:38:56;10.53;;;3.57;;
11396;SDS011;5754;43.726;7.416;2022-12-29T14:41:35;9.70;;;3.70;;
11396;SDS011;5754;43.726;7.416;2022-12-29T14:44:16;9.17;;;3.50;;
11396;SDS011;5754;43.726;7.416;2022-12-29T14:46:59;12.57;;;4.30;;
11396;SDS011;5754;43.726;7.416;2022-12-29T14:49:40;9.77;;;3.90;;
11396;SDS011;5754;43.726;7.416;2022-12-29T14:52:22;10.77;;;3.93;;
11396;SDS011;5754;43.726;7.416;2022-12-29T14:58:44;10.57;;;4.47;;
11396;SDS011;5754;43.726;7.416;2022-12-29T15:05:48;11.63;;;4.37;;
11396;SDS011;5754;43.726;7.416;2022-12-29T15:08:26;10.60;;;3.87;;
11396;SDS011;5754;43.726;7.416;2022-12-29T15:11:04;12.37;;;4.00;;
11396;SDS011;5754;43.726;7.416;2022-12-29T15:13:42;12.33;;;4.50;;
11396;SDS011;5754;43.726;7.416;2022-12-29T15:16:20;15.17;;;4.67;;
11396;SDS011;5754;43.726;7.416;2022-12-29T15:18:55;13.90;;;5.00;;
11396;SDS011;5754;43.726;7.416;2022-12-29T15:21:30;15.07;;;4.80;;
11396;SDS011;5754;43.726;7.416;2022-12-29T15:24:05;18.43;;;5.33;;
11396;SDS011;5754;43.726;7.416;2022-12-29T15:26:41;16.20;;;4.57;;
11396;SDS011;5754;43.726;7.416;2022-12-29T15:32:19;12.87;;;4.13;;
11396;SDS011;5754;43.726;7.416;2022-12-29T15:34:54;12.17;;;3.70;;
11396;SDS011;5754;43.726;7.416;2022-12-29T15:37:33;13.17;;;4.27;;
11396;SDS011;5754;43.726;7.416;2022-12-29T15:40:21;14.13;;;4.50;;
11396;SDS011;5754;43.726;7.416;2022-12-29T15:45:49;12.33;;;4.23;;
11396;SDS011;5754;43.726;7.416;2022-12-29T15:48:26;12.10;;;4.27;;
11396;SDS011;5754;43.726;7.416;2022-12-29T15:51:00;11.70;;;4.20;;
11396;SDS011;5754;43.726;7.416;2022-12-29T15:53:35;12.17;;;3.93;;
11396;SDS011;5754;43.726;7.416;2022-12-29T15:56:09;9.40;;;3.80;;
11396;SDS011;5754;43.726;7.416;2022-12-29T15:58:45;8.80;;;3.97;;
11396;SDS011;5754;43.726;7.416;2022-12-29T16:01:31;10.83;;;4.50;;
11396;SDS011;5754;43.726;7.416;2022-12-29T16:04:07;12.93;;;4.43;;
11396;SDS011;5754;43.726;7.416;2022-12-29T16:06:59;10.50;;;4.10;;
11396;SDS011;5754;43.726;7.416;2022-12-29T16:09:40;13.50;;;5.07;;
11396;SDS011;5754;43.726;7.416;2022-12-29T16:12:16;15.83;;;4.87;;
11396;SDS011;5754;43.726;7.416;2022-12-29T16:14:53;10.47;;;4.90;;
11396;SDS011;5754;43.726;7.416;2022-12-29T16:17:30;12.80;;;5.07;;
11396;SDS011;5754;43.726;7.416;2022-12-29T16:20:14;12.03;;;4.60;;
11396;SDS011;5754;43.726;7.416;2022-12-29T16:22:52;11.87;;;4.37;;
11396;SDS011;5754;43.726;7.416;2022-12-29T16:28:18;11.93;;;4.20;;
11396;SDS011;5754;43.726;7.416;2022-12-29T16:30:57;14.00;;;4.30;;
11396;SDS011;5754;43.726;7.416;2022-12-29T16:33:39;12.23;;;4.67;;
11396;SDS011;5754;43.726;7.416;2022-12-29T16:36:30;8.77;;;4.13;;
11396;SDS011;5754;43.726;7.416;2022-12-29T16:49:12;12.73;;;4.27;;
11396;SDS011;5754;43.726;7.416;2022-12-29T16:51:54;11.40;;;4.57;;
11396;SDS011;5754;43.726;7.416;2022-12-29T16:54:33;11.80;;;4.33;;
11396;SDS011;5754;43.726;7.416;2022-12-29T16:57:09;14.00;;;4.23;;
11396;SDS011;5754;43.726;7.416;2022-12-29T16:59:45;12.90;;;4.43;;
11396;SDS011;5754;43.726;7.416;2022-12-29T17:02:20;12.43;;;4.03;;
11396;SDS011;5754;43.726;7.416;2022-12-29T17:04:56;10.20;;;4.03;;
11396;SDS011;5754;43.726;7.416;2022-12-29T17:07:30;10.93;;;4.33;;
11396;SDS011;5754;43.726;7.416;2022-12-29T17:10:05;10.73;;;5.10;;
11396;SDS011;5754;43.726;7.416;2022-12-29T17:12:40;10.20;;;4.03;;
11396;SDS011;5754;43.726;7.416;2022-12-29T17:15:26;11.37;;;4.43;;
11396;SDS011;5754;43.726;7.416;2022-12-29T17:18:08;10.83;;;4.30;;
11396;SDS011;5754;43.726;7.416;2022-12-29T17:20:46;11.33;;;4.93;;
11396;SDS011;5754;43.726;7.416;2022-12-29T17:23:21;10.23;;;5.00;;
11396;SDS011;5754;43.726;7.416;2022-12-29T17:25:58;11.70;;;4.70;;
11396;SDS011;5754;43.726;7.416;2022-12-29T17:28:33;14.90;;;5.00;;
11396;SDS011;5754;43.726;7.416;2022-12-29T17:31:08;13.23;;;4.90;;
11396;SDS011;5754;43.726;7.416;2022-12-29T17:33:43;14.80;;;5.23;;
11396;SDS011;5754;43.726;7.416;2022-12-29T17:36:17;13.00;;;6.03;;
11396;SDS011;5754;43.726;7.416;2022-12-29T17:38:55;13.03;;;5.53;;
11396;SDS011;5754;43.726;7.416;2022-12-29T17:41:32;14.20;;;4.90;;
11396;SDS011;5754;43.726;7.416;2022-12-29T17:44:08;10.00;;;4.90;;
11396;SDS011;5754;43.726;7.416;2022-12-29T17:46:47;10.67;;;5.30;;
11396;SDS011;5754;43.726;7.416;2022-12-29T17:49:22;11.57;;;4.90;;
11396;SDS011;5754;43.726;7.416;2022-12-29T17:51:56;13.37;;;5.37;;
11396;SDS011;5754;43.726;7.416;2022-12-29T17:54:37;16.33;;;6.10;;
11396;SDS011;5754;43.726;7.416;2022-12-29T17:57:15;14.83;;;5.70;;
11396;SDS011;5754;43.726;7.416;2022-12-29T17:59:50;13.57;;;5.60;;
11396;SDS011;5754;43.726;7.416;2022-12-29T18:02:29;12.03;;;5.17;;
11396;SDS011;5754;43.726;7.416;2022-12-29T18:05:04;13.63;;;5.97;;
11396;SDS011;5754;43.726;7.416;2022-12-29T18:07:40;11.63;;;5.13;;
11396;SDS011;5754;43.726;7.416;2022-12-29T18:10:15;11.37;;;5.70;;
11396;SDS011;5754;43.726;7.416;2022-12-29T18:12:50;13.23;;;6.03;;
11396;SDS011;5754;43.726;7.416;2022-12-29T18:15:26;12.43;;;5.30;;
11396;SDS011;5754;43.726;7.416;2022-12-29T18:18:18;9.83;;;4.73;;